sensor_id;sensor_type;location;lat;lon;timestamp;temperature;humidity
1411;DHT22;700;51.906;8.404;2022-10-17T00:02:34;17.20;99.90
1411;DHT22;700;51.906;8.404;2022-10-17T00:07:37;17.10;99.90
1411;DHT22;700;51.906;8.404;2022-10-17T00:12:39;17.10;99.90
1411;DHT22;700;51.906;8.404;2022-10-17T00:17:39;17.10;99.90
1411;DHT22;700;51.906;8.404;2022-10-17T00:22:41;17.00;99.90
1411;DHT22;700;51.906;8.404;2022-10-17T00:27:44;17.10;99.90
1411;DHT22;700;51.906;8.404;2022-10-17T00:32:45;17.20;99.90
1411;DHT22;700;51.906;8.404;2022-10-17T00:37:46;17.10;99.90
1411;DHT22;700;51.906;8.404;2022-10-17T00:42:49;17.10;99.90
1411;DHT22;700;51.906;8.404;2022-10-17T00:48:11;17.10;99.90
1411;DHT22;700;51.906;8.404;2022-10-17T00:53:12;17.20;99.90
1411;DHT22;700;51.906;8.404;2022-10-17T00:58:14;17.40;99.90
1411;DHT22;700;51.906;8.404;2022-10-17T01:03:15;17.30;99.90
1411;DHT22;700;51.906;8.404;2022-10-17T01:08:16;17.20;99.90
1411;DHT22;700;51.906;8.404;2022-10-17T01:18:50;17.50;99.90
1411;DHT22;700;51.906;8.404;2022-10-17T01:34:42;17.40;99.90
1411;DHT22;700;51.906;8.404;2022-10-17T01:45:15;17.30;99.90
1411;DHT22;700;51.906;8.404;2022-10-17T01:50:21;17.20;99.90
1411;DHT22;700;51.906;8.404;2022-10-17T01:55:30;17.20;99.90
1411;DHT22;700;51.906;8.404;2022-10-17T02:00:35;17.20;99.90
1411;DHT22;700;51.906;8.404;2022-10-17T02:05:39;17.20;99.90
1411;DHT22;700;51.906;8.404;2022-10-17T02:10:59;17.10;99.90
1411;DHT22;700;51.906;8.404;2022-10-17T02:32:23;17.40;99.90
1411;DHT22;700;51.906;8.404;2022-10-17T02:37:27;17.30;99.90
1411;DHT22;700;51.906;8.404;2022-10-17T02:42:29;17.30;99.90
1411;DHT22;700;51.906;8.404;2022-10-17T02:47:52;17.30;99.90
1411;DHT22;700;51.906;8.404;2022-10-17T02:53:00;17.50;99.90
1411;DHT22;700;51.906;8.404;2022-10-17T02:58:12;17.40;99.90
1411;DHT22;700;51.906;8.404;2022-10-17T03:03:21;17.30;99.90
1411;DHT22;700;51.906;8.404;2022-10-17T03:08:22;17.40;99.90
1411;DHT22;700;51.906;8.404;2022-10-17T03:13:23;17.50;99.90
1411;DHT22;700;51.906;8.404;2022-10-17T03:18:24;17.40;99.90
1411;DHT22;700;51.906;8.404;2022-10-17T03:23:24;17.30;99.90
1411;DHT22;700;51.906;8.404;2022-10-17T03:28:25;17.30;99.90
1411;DHT22;700;51.906;8.404;2022-10-17T03:33:28;17.30;99.90
1411;DHT22;700;51.906;8.404;2022-10-17T03:38:28;17.30;99.90
1411;DHT22;700;51.906;8.404;2022-10-17T03:43:29;17.20;99.90
1411;DHT22;700;51.906;8.404;2022-10-17T03:48:30;17.30;99.90
1411;DHT22;700;51.906;8.404;2022-10-17T03:53:36;17.10;99.90
1411;DHT22;700;51.906;8.404;2022-10-17T03:58:36;17.20;99.90
1411;DHT22;700;51.906;8.404;2022-10-17T04:03:37;17.30;99.90
1411;DHT22;700;51.906;8.404;2022-10-17T04:08:39;17.40;99.90
1411;DHT22;700;51.906;8.404;2022-10-17T04:13:45;17.30;99.90
1411;DHT22;700;51.906;8.404;2022-10-17T04:18:46;17.30;99.90
1411;DHT22;700;51.906;8.404;2022-10-17T04:23:46;17.30;99.90
1411;DHT22;700;51.906;8.404;2022-10-17T04:28:47;17.40;99.90
1411;DHT22;700;51.906;8.404;2022-10-17T04:33:48;17.50;99.90
1411;DHT22;700;51.906;8.404;2022-10-17T04:38:52;17.40;99.90
1411;DHT22;700;51.906;8.404;2022-10-17T04:43:52;17.30;99.90
1411;DHT22;700;51.906;8.404;2022-10-17T04:48:55;17.20;99.90
1411;DHT22;700;51.906;8.404;2022-10-17T04:53:56;17.20;99.90
1411;DHT22;700;51.906;8.404;2022-10-17T04:58:57;17.20;99.90
1411;DHT22;700;51.906;8.404;2022-10-17T05:04:01;17.20;99.90
1411;DHT22;700;51.906;8.404;2022-10-17T05:09:03;17.30;99.90
1411;DHT22;700;51.906;8.404;2022-10-17T05:14:04;17.30;99.90
1411;DHT22;700;51.906;8.404;2022-10-17T05:19:10;17.30;99.90
1411;DHT22;700;51.906;8.404;2022-10-17T05:24:14;17.20;99.90
1411;DHT22;700;51.906;8.404;2022-10-17T05:29:14;17.20;99.90
1411;DHT22;700;51.906;8.404;2022-10-17T05:34:15;17.20;99.90
1411;DHT22;700;51.906;8.404;2022-10-17T05:39:16;17.30;99.90
1411;DHT22;700;51.906;8.404;2022-10-17T05:44:19;17.20;99.90
1411;DHT22;700;51.906;8.404;2022-10-17T05:49:19;17.10;99.90
1411;DHT22;700;51.906;8.404;2022-10-17T05:54:25;17.30;99.90
1411;DHT22;700;51.906;8.404;2022-10-17T05:59:28;17.40;99.90
1411;DHT22;700;51.906;8.404;2022-10-17T06:04:29;17.40;99.90
1411;DHT22;700;51.906;8.404;2022-10-17T06:09:31;17.40;99.90
1411;DHT22;700;51.906;8.404;2022-10-17T06:14:32;17.30;99.90
1411;DHT22;700;51.906;8.404;2022-10-17T06:19:33;17.40;99.90
1411;DHT22;700;51.906;8.404;2022-10-17T06:24:34;17.40;99.90
1411;DHT22;700;51.906;8.404;2022-10-17T06:29:34;17.50;99.90
1411;DHT22;700;51.906;8.404;2022-10-17T06:34:35;17.50;99.90
1411;DHT22;700;51.906;8.404;2022-10-17T06:39:35;17.70;99.90
1411;DHT22;700;51.906;8.404;2022-10-17T06:44:36;17.90;99.90
1411;DHT22;700;51.906;8.404;2022-10-17T06:49:39;18.00;99.90
1411;DHT22;700;51.906;8.404;2022-10-17T06:54:40;17.80;99.90
1411;DHT22;700;51.906;8.404;2022-10-17T06:59:40;18.10;99.90
1411;DHT22;700;51.906;8.404;2022-10-17T07:04:41;18.20;99.90
1411;DHT22;700;51.906;8.404;2022-10-17T07:09:41;18.40;99.90
1411;DHT22;700;51.906;8.404;2022-10-17T07:14:42;18.60;99.90
1411;DHT22;700;51.906;8.404;2022-10-17T07:19:43;18.60;99.90
1411;DHT22;700;51.906;8.404;2022-10-17T07:24:43;18.90;99.90
1411;DHT22;700;51.906;8.404;2022-10-17T07:29:46;19.00;99.90
1411;DHT22;700;51.906;8.404;2022-10-17T07:34:47;19.00;99.90
1411;DHT22;700;51.906;8.404;2022-10-17T07:39:50;19.20;99.90
1411;DHT22;700;51.906;8.404;2022-10-17T07:44:51;19.40;99.90
1411;DHT22;700;51.906;8.404;2022-10-17T07:49:54;19.70;99.90
1411;DHT22;700;51.906;8.404;2022-10-17T07:54:54;20.10;99.90
1411;DHT22;700;51.906;8.404;2022-10-17T07:59:57;20.50;99.90
1411;DHT22;700;51.906;8.404;2022-10-17T08:04:58;20.70;99.90
1411;DHT22;700;51.906;8.404;2022-10-17T08:10:01;20.60;99.90
1411;DHT22;700;51.906;8.404;2022-10-17T08:15:02;21.00;99.90
1411;DHT22;700;51.906;8.404;2022-10-17T08:20:04;21.30;99.90
1411;DHT22;700;51.906;8.404;2022-10-17T08:25:05;21.40;99.90
1411;DHT22;700;51.906;8.404;2022-10-17T08:30:08;21.80;99.90
1411;DHT22;700;51.906;8.404;2022-10-17T08:35:09;22.10;99.90
1411;DHT22;700;51.906;8.404;2022-10-17T08:40:20;22.30;99.90
1411;DHT22;700;51.906;8.404;2022-10-17T08:45:34;22.80;99.90
1411;DHT22;700;51.906;8.404;2022-10-17T08:50:49;23.70;99.90
1411;DHT22;700;51.906;8.404;2022-10-17T08:55:52;24.60;99.90
1411;DHT22;700;51.906;8.404;2022-10-17T09:26:46;28.30;99.90
1411;DHT22;700;51.906;8.404;2022-10-17T09:32:01;29.80;99.90
1411;DHT22;700;51.906;8.404;2022-10-17T09:37:11;32.50;99.90
1411;DHT22;700;51.906;8.404;2022-10-17T09:42:16;34.40;95.30
1411;DHT22;700;51.906;8.404;2022-10-17T09:47:28;34.30;93.10
1411;DHT22;700;51.906;8.404;2022-10-17T09:52:42;35.80;90.40
1411;DHT22;700;51.906;8.404;2022-10-17T09:57:55;34.90;86.80
1411;DHT22;700;51.906;8.404;2022-10-17T10:03:09;33.10;90.10
1411;DHT22;700;51.906;8.404;2022-10-17T10:08:20;31.30;94.20
1411;DHT22;700;51.906;8.404;2022-10-17T10:13:25;29.90;97.50
1411;DHT22;700;51.906;8.404;2022-10-17T10:18:33;28.30;99.90
1411;DHT22;700;51.906;8.404;2022-10-17T10:23:35;28.20;99.90
1411;DHT22;700;51.906;8.404;2022-10-17T10:28:51;28.30;99.90
1411;DHT22;700;51.906;8.404;2022-10-17T10:33:54;27.70;99.90
1411;DHT22;700;51.906;8.404;2022-10-17T10:38:56;26.90;99.90
1411;DHT22;700;51.906;8.404;2022-10-17T10:44:02;27.00;99.90
1411;DHT22;700;51.906;8.404;2022-10-17T10:49:04;27.30;99.90
1411;DHT22;700;51.906;8.404;2022-10-17T10:59:41;27.70;99.90
1411;DHT22;700;51.906;8.404;2022-10-17T11:05:02;27.90;99.90
1411;DHT22;700;51.906;8.404;2022-10-17T11:10:29;27.20;99.90
1411;DHT22;700;51.906;8.404;2022-10-17T11:15:41;26.50;99.90
1411;DHT22;700;51.906;8.404;2022-10-17T11:26:07;25.80;99.90
1411;DHT22;700;51.906;8.404;2022-10-17T11:31:14;25.30;99.90
1411;DHT22;700;51.906;8.404;2022-10-17T11:36:19;25.30;99.90
1411;DHT22;700;51.906;8.404;2022-10-17T11:46:39;25.20;99.90
1411;DHT22;700;51.906;8.404;2022-10-17T11:51:45;25.40;99.90
1411;DHT22;700;51.906;8.404;2022-10-17T12:02:46;25.40;99.90
1411;DHT22;700;51.906;8.404;2022-10-17T12:08:52;25.30;99.90
1411;DHT22;700;51.906;8.404;2022-10-17T12:18:32;24.60;99.90
1411;DHT22;700;51.906;8.404;2022-10-17T12:23:34;24.50;99.90
1411;DHT22;700;51.906;8.404;2022-10-17T12:28:45;24.50;99.90
1411;DHT22;700;51.906;8.404;2022-10-17T12:33:48;24.30;99.90
1411;DHT22;700;51.906;8.404;2022-10-17T12:49:45;24.30;99.90
1411;DHT22;700;51.906;8.404;2022-10-17T13:05:30;24.20;99.90
1411;DHT22;700;51.906;8.404;2022-10-17T13:10:34;24.40;99.90
1411;DHT22;700;51.906;8.404;2022-10-17T13:15:36;23.90;99.90
1411;DHT22;700;51.906;8.404;2022-10-17T13:20:37;23.70;99.90
1411;DHT22;700;51.906;8.404;2022-10-17T13:25:38;23.90;99.90
1411;DHT22;700;51.906;8.404;2022-10-17T13:30:38;24.00;99.90
1411;DHT22;700;51.906;8.404;2022-10-17T13:35:42;24.30;99.90
1411;DHT22;700;51.906;8.404;2022-10-17T13:40:43;24.70;99.90
1411;DHT22;700;51.906;8.404;2022-10-17T13:45:53;24.80;99.90
1411;DHT22;700;51.906;8.404;2022-10-17T13:50:57;24.60;99.90
1411;DHT22;700;51.906;8.404;2022-10-17T14:01:01;24.70;99.90
1411;DHT22;700;51.906;8.404;2022-10-17T14:06:14;24.70;99.90
1411;DHT22;700;51.906;8.404;2022-10-17T14:11:22;24.40;99.90
1411;DHT22;700;51.906;8.404;2022-10-17T14:16:33;24.80;99.90
1411;DHT22;700;51.906;8.404;2022-10-17T14:21:35;25.10;99.90
1411;DHT22;700;51.906;8.404;2022-10-17T14:26:49;24.80;99.90
1411;DHT22;700;51.906;8.404;2022-10-17T14:32:05;24.90;99.90
1411;DHT22;700;51.906;8.404;2022-10-17T14:42:20;24.60;99.90
1411;DHT22;700;51.906;8.404;2022-10-17T14:47:24;24.30;99.90
1411;DHT22;700;51.906;8.404;2022-10-17T14:52:29;24.10;99.90
1411;DHT22;700;51.906;8.404;2022-10-17T15:02:30;24.20;99.90
1411;DHT22;700;51.906;8.404;2022-10-17T15:07:31;24.30;99.90
1411;DHT22;700;51.906;8.404;2022-10-17T15:12:32;24.20;99.90
1411;DHT22;700;51.906;8.404;2022-10-17T15:17:32;23.80;99.90
1411;DHT22;700;51.906;8.404;2022-10-17T15:22:33;23.90;99.90
1411;DHT22;700;51.906;8.404;2022-10-17T15:27:38;24.00;99.90
1411;DHT22;700;51.906;8.404;2022-10-17T15:32:39;23.90;99.90
1411;DHT22;700;51.906;8.404;2022-10-17T15:37:42;23.70;99.90
1411;DHT22;700;51.906;8.404;2022-10-17T15:42:43;23.70;99.90
1411;DHT22;700;51.906;8.404;2022-10-17T15:47:56;23.60;99.90
1411;DHT22;700;51.906;8.404;2022-10-17T15:53:00;23.40;99.90
1411;DHT22;700;51.906;8.404;2022-10-17T15:58:01;23.30;99.90
1411;DHT22;700;51.906;8.404;2022-10-17T16:03:02;23.20;99.90
1411;DHT22;700;51.906;8.404;2022-10-17T16:08:02;23.00;99.90
1411;DHT22;700;51.906;8.404;2022-10-17T16:13:03;22.80;99.90
1411;DHT22;700;51.906;8.404;2022-10-17T16:18:03;23.10;99.90
1411;DHT22;700;51.906;8.404;2022-10-17T16:23:04;23.20;99.90
1411;DHT22;700;51.906;8.404;2022-10-17T16:28:08;23.00;99.90
1411;DHT22;700;51.906;8.404;2022-10-17T16:33:13;23.00;99.90
1411;DHT22;700;51.906;8.404;2022-10-17T16:38:14;22.90;99.90
1411;DHT22;700;51.906;8.404;2022-10-17T16:43:14;22.50;99.90
1411;DHT22;700;51.906;8.404;2022-10-17T16:48:15;22.50;99.90
1411;DHT22;700;51.906;8.404;2022-10-17T16:53:19;22.40;99.90
1411;DHT22;700;51.906;8.404;2022-10-17T16:58:19;22.00;99.90
1411;DHT22;700;51.906;8.404;2022-10-17T17:03:23;22.00;99.90
1411;DHT22;700;51.906;8.404;2022-10-17T17:08:23;21.80;99.90
1411;DHT22;700;51.906;8.404;2022-10-17T17:13:25;21.60;99.90
1411;DHT22;700;51.906;8.404;2022-10-17T17:18:25;21.50;99.90
1411;DHT22;700;51.906;8.404;2022-10-17T17:23:26;21.30;99.90
1411;DHT22;700;51.906;8.404;2022-10-17T17:28:30;21.10;99.90
1411;DHT22;700;51.906;8.404;2022-10-17T17:33:31;21.00;99.90
1411;DHT22;700;51.906;8.404;2022-10-17T17:38:34;21.10;99.90
1411;DHT22;700;51.906;8.404;2022-10-17T17:43:35;20.90;99.90
1411;DHT22;700;51.906;8.404;2022-10-17T17:48:39;20.70;99.90
1411;DHT22;700;51.906;8.404;2022-10-17T17:53:40;20.80;99.90
1411;DHT22;700;51.906;8.404;2022-10-17T17:58:43;20.70;99.90
1411;DHT22;700;51.906;8.404;2022-10-17T18:03:51;20.70;99.90
1411;DHT22;700;51.906;8.404;2022-10-17T18:08:55;20.70;99.90
1411;DHT22;700;51.906;8.404;2022-10-17T18:14:01;21.00;99.90
1411;DHT22;700;51.906;8.404;2022-10-17T18:19:05;20.90;99.90
1411;DHT22;700;51.906;8.404;2022-10-17T18:24:08;20.90;99.90
1411;DHT22;700;51.906;8.404;2022-10-17T18:29:13;20.90;99.90
1411;DHT22;700;51.906;8.404;2022-10-17T18:34:14;20.90;99.90
1411;DHT22;700;51.906;8.404;2022-10-17T18:39:15;20.90;99.90
1411;DHT22;700;51.906;8.404;2022-10-17T18:44:16;20.90;99.90
1411;DHT22;700;51.906;8.404;2022-10-17T18:49:19;20.80;99.90
1411;DHT22;700;51.906;8.404;2022-10-17T18:54:20;20.80;99.90
1411;DHT22;700;51.906;8.404;2022-10-17T18:59:21;20.80;99.90
1411;DHT22;700;51.906;8.404;2022-10-17T19:04:22;20.80;99.90
1411;DHT22;700;51.906;8.404;2022-10-17T19:09:25;20.80;99.90
1411;DHT22;700;51.906;8.404;2022-10-17T19:14:26;20.60;99.90
1411;DHT22;700;51.906;8.404;2022-10-17T19:19:28;20.60;99.90
1411;DHT22;700;51.906;8.404;2022-10-17T19:24:30;20.50;99.90
1411;DHT22;700;51.906;8.404;2022-10-17T19:29:31;20.60;99.90
1411;DHT22;700;51.906;8.404;2022-10-17T19:34:35;20.50;99.90
1411;DHT22;700;51.906;8.404;2022-10-17T19:39:36;20.60;99.90
1411;DHT22;700;51.906;8.404;2022-10-17T19:44:39;20.60;99.90
1411;DHT22;700;51.906;8.404;2022-10-17T19:49:39;20.70;99.90
1411;DHT22;700;51.906;8.404;2022-10-17T19:54:40;20.80;99.90
1411;DHT22;700;51.906;8.404;2022-10-17T19:59:41;20.70;99.90
1411;DHT22;700;51.906;8.404;2022-10-17T20:04:46;20.60;99.90
1411;DHT22;700;51.906;8.404;2022-10-17T20:09:47;20.40;99.90
1411;DHT22;700;51.906;8.404;2022-10-17T20:14:52;20.40;99.90
1411;DHT22;700;51.906;8.404;2022-10-17T20:19:52;20.20;99.90
1411;DHT22;700;51.906;8.404;2022-10-17T20:24:53;20.10;99.90
1411;DHT22;700;51.906;8.404;2022-10-17T20:29:54;20.30;99.90
1411;DHT22;700;51.906;8.404;2022-10-17T20:34:57;20.20;99.90
1411;DHT22;700;51.906;8.404;2022-10-17T20:40:02;20.10;99.90
1411;DHT22;700;51.906;8.404;2022-10-17T20:45:04;20.10;99.90
1411;DHT22;700;51.906;8.404;2022-10-17T20:50:05;20.10;99.90
1411;DHT22;700;51.906;8.404;2022-10-17T20:55:06;20.00;99.90
1411;DHT22;700;51.906;8.404;2022-10-17T21:00:08;20.20;99.90
1411;DHT22;700;51.906;8.404;2022-10-17T21:05:11;20.20;99.90
1411;DHT22;700;51.906;8.404;2022-10-17T21:10:14;20.30;99.90
1411;DHT22;700;51.906;8.404;2022-10-17T21:15:17;20.20;99.90
1411;DHT22;700;51.906;8.404;2022-10-17T21:20:18;20.10;99.90
1411;DHT22;700;51.906;8.404;2022-10-17T21:25:21;20.20;99.90
1411;DHT22;700;51.906;8.404;2022-10-17T21:30:24;20.20;99.90
1411;DHT22;700;51.906;8.404;2022-10-17T21:35:25;20.20;99.90
1411;DHT22;700;51.906;8.404;2022-10-17T21:40:25;20.20;99.90
1411;DHT22;700;51.906;8.404;2022-10-17T21:45:26;20.20;99.90
1411;DHT22;700;51.906;8.404;2022-10-17T21:50:27;20.10;99.90
1411;DHT22;700;51.906;8.404;2022-10-17T21:55:27;20.10;99.90
1411;DHT22;700;51.906;8.404;2022-10-17T22:00:28;20.00;99.90
1411;DHT22;700;51.906;8.404;2022-10-17T22:05:31;20.00;99.90
1411;DHT22;700;51.906;8.404;2022-10-17T22:10:34;19.90;99.90
1411;DHT22;700;51.906;8.404;2022-10-17T22:15:35;19.90;99.90
1411;DHT22;700;51.906;8.404;2022-10-17T22:20:35;20.00;99.90
1411;DHT22;700;51.906;8.404;2022-10-17T22:25:36;20.10;99.90
1411;DHT22;700;51.906;8.404;2022-10-17T22:30:39;20.00;99.90
1411;DHT22;700;51.906;8.404;2022-10-17T22:35:42;20.00;99.90
1411;DHT22;700;51.906;8.404;2022-10-17T22:40:44;19.80;99.90
1411;DHT22;700;51.906;8.404;2022-10-17T22:45:55;20.00;99.90
1411;DHT22;700;51.906;8.404;2022-10-17T22:50:58;20.10;99.90
1411;DHT22;700;51.906;8.404;2022-10-17T22:56:21;20.10;99.90
1411;DHT22;700;51.906;8.404;2022-10-17T23:01:24;19.90;99.90
1411;DHT22;700;51.906;8.404;2022-10-17T23:06:25;19.90;99.90
1411;DHT22;700;51.906;8.404;2022-10-17T23:11:28;19.80;99.90
1411;DHT22;700;51.906;8.404;2022-10-17T23:16:28;19.80;99.90
1411;DHT22;700;51.906;8.404;2022-10-17T23:21:29;19.60;99.90
1411;DHT22;700;51.906;8.404;2022-10-17T23:26:32;19.60;99.90
1411;DHT22;700;51.906;8.404;2022-10-17T23:31:32;19.70;99.90
1411;DHT22;700;51.906;8.404;2022-10-17T23:36:35;19.80;99.90
1411;DHT22;700;51.906;8.404;2022-10-17T23:41:42;19.80;99.90
1411;DHT22;700;51.906;8.404;2022-10-17T23:46:42;19.60;99.90
1411;DHT22;700;51.906;8.404;2022-10-17T23:51:43;19.80;99.90
1411;DHT22;700;51.906;8.404;2022-10-17T23:56:43;19.60;99.90
